TVS2DM LKPR-EPWA
Flight info
| Callsign | TVS2DM |
|---|---|
| Flight time | N/A |
| Altitude | 35000 |
| Route | ARTUP4H ARTUP DCT LAGAR DCT MISKA DCT OKENO Q277 AGAVA AGAVA6U |
| Aircraft | B738/M-SDE2E3FGHIRWXY/LB1 |
Departure
| Time | 2026-05-06 20:40 |
|---|---|
| Airport | Václav Havel Airport Prague (LKPR) |
Arrival
| Time | N/A |
|---|---|
| Airport | Warsaw Chopin Airport (EPWA) |
| Time | Latitude | Longitude | Altitude | Speed | Heading |
|---|---|---|---|---|---|
| 2026-05-06 20:00 | 50.10714 | 14.26329 | 1176 ft | 0 kts | 214° |
| 2026-05-06 20:30 | 50.10731 | 14.26347 | 1171 ft | 4 kts | 214° |
| 2026-05-06 20:30 | 50.10748 | 14.26365 | 1172 ft | 4 kts | 229° |
| 2026-05-06 20:31 | 50.10753 | 14.26394 | 1173 ft | 4 kts | 301° |
| 2026-05-06 20:31 | 50.10739 | 14.26426 | 1171 ft | 4 kts | 304° |
| 2026-05-06 20:31 | 50.10735 | 14.26436 | 1171 ft | 1 kts | 304° |
| 2026-05-06 20:34 | 50.10736 | 14.26433 | 1171 ft | 2 kts | 304° |
| 2026-05-06 20:34 | 50.10766 | 14.26366 | 1174 ft | 10 kts | 304° |
| 2026-05-06 20:34 | 50.10796 | 14.26272 | 1175 ft | 10 kts | 266° |
| 2026-05-06 20:35 | 50.10765 | 14.26215 | 1176 ft | 6 kts | 217° |
| 2026-05-06 20:35 | 50.10727 | 14.26172 | 1174 ft | 10 kts | 215° |
| 2026-05-06 20:35 | 50.10672 | 14.26112 | 1175 ft | 10 kts | 214° |
| 2026-05-06 20:35 | 50.10616 | 14.26057 | 1175 ft | 10 kts | 210° |
| 2026-05-06 20:36 | 50.10559 | 14.26000 | 1175 ft | 0 kts | 215° |
| 2026-05-06 20:36 | 50.10548 | 14.25988 | 1178 ft | 5 kts | 214° |
| 2026-05-06 20:37 | 50.10531 | 14.25944 | 1182 ft | 6 kts | 264° |
| 2026-05-06 20:37 | 50.10561 | 14.25837 | 1182 ft | 14 kts | 303° |
| 2026-05-06 20:37 | 50.10615 | 14.25700 | 1177 ft | 15 kts | 300° |
| 2026-05-06 20:37 | 50.10625 | 14.25550 | 1175 ft | 15 kts | 239° |
| 2026-05-06 20:38 | 50.10590 | 14.25405 | 1173 ft | 14 kts | 260° |
| 2026-05-06 20:38 | 50.10570 | 14.25259 | 1171 ft | 14 kts | 257° |
| 2026-05-06 20:38 | 50.10558 | 14.25195 | 1169 ft | 4 kts | 244° |
| 2026-05-06 20:38 | 50.10544 | 14.25153 | 1170 ft | 4 kts | 243° |
| 2026-05-06 20:39 | 50.10540 | 14.25105 | 1172 ft | 5 kts | 244° |
| 2026-05-06 20:39 | 50.10520 | 14.25109 | 1170 ft | 3 kts | 130° |
| 2026-05-06 20:39 | 50.10503 | 14.25148 | 1172 ft | 16 kts | 127° |
| 2026-05-06 20:39 | 50.10285 | 14.25600 | 1184 ft | 86 kts | 127° |
| 2026-05-06 20:40 | 50.09798 | 14.26614 | 1213 ft | 145 kts | 127° |
| 2026-05-06 20:40 | 50.09096 | 14.28042 | 1428 ft | 180 kts | 131° |
| 2026-05-06 20:40 | 50.08265 | 14.29599 | 2103 ft | 197 kts | 130° |
| 2026-05-06 20:40 | 50.07349 | 14.31292 | 2741 ft | 205 kts | 125° |
| 2026-05-06 20:41 | 50.06517 | 14.33132 | 3356 ft | 215 kts | 124° |
| 2026-05-06 20:41 | 50.05615 | 14.35144 | 3636 ft | 237 kts | 124° |
| 2026-05-06 20:41 | 50.04632 | 14.37292 | 4137 ft | 251 kts | 126° |
| 2026-05-06 20:41 | 50.03542 | 14.39572 | 4594 ft | 270 kts | 128° |
| 2026-05-06 20:42 | 50.02396 | 14.41907 | 5407 ft | 273 kts | 129° |
| 2026-05-06 20:42 | 50.01243 | 14.44283 | 6271 ft | 278 kts | 129° |
| 2026-05-06 20:42 | 50.00076 | 14.46695 | 7092 ft | 281 kts | 130° |
| 2026-05-06 20:42 | 49.98899 | 14.49134 | 7901 ft | 284 kts | 130° |
| 2026-05-06 20:43 | 49.97746 | 14.51641 | 8783 ft | 288 kts | 121° |
| 2026-05-06 20:43 | 49.97249 | 14.54685 | 9574 ft | 300 kts | 91° |
| 2026-05-06 20:43 | 49.97764 | 14.57855 | 10220 ft | 314 kts | 62° |
| 2026-05-06 20:43 | 49.99250 | 14.60503 | 10430 ft | 340 kts | 38° |
| 2026-05-06 20:44 | 50.01218 | 14.62749 | 10716 ft | 360 kts | 35° |
| 2026-05-06 20:44 | 50.03298 | 14.65008 | 11323 ft | 368 kts | 35° |
| 2026-05-06 20:44 | 50.05371 | 14.67284 | 12058 ft | 371 kts | 36° |
| 2026-05-06 20:44 | 50.07471 | 14.69641 | 12843 ft | 373 kts | 36° |
| 2026-05-06 20:45 | 50.09575 | 14.72047 | 13580 ft | 378 kts | 37° |
| 2026-05-06 20:45 | 50.11725 | 14.74533 | 14229 ft | 382 kts | 37° |
| 2026-05-06 20:45 | 50.13843 | 14.76993 | 14846 ft | 387 kts | 37° |
| 2026-05-06 20:45 | 50.16010 | 14.79514 | 15469 ft | 391 kts | 36° |
| 2026-05-06 20:46 | 50.18387 | 14.81595 | 16043 ft | 395 kts | 17° |
| 2026-05-06 20:46 | 50.21086 | 14.82379 | 16710 ft | 396 kts | 5° |
| 2026-05-06 20:46 | 50.23834 | 14.82832 | 17335 ft | 400 kts | 4° |
| 2026-05-06 20:46 | 50.26621 | 14.83262 | 17949 ft | 405 kts | 4° |
| 2026-05-06 20:47 | 50.29441 | 14.83703 | 18516 ft | 410 kts | 4° |
| 2026-05-06 20:47 | 50.32289 | 14.84165 | 19088 ft | 413 kts | 4° |
| 2026-05-06 20:47 | 50.35150 | 14.84646 | 19638 ft | 416 kts | 4° |
| 2026-05-06 20:47 | 50.38039 | 14.85144 | 20173 ft | 419 kts | 4° |
| 2026-05-06 20:48 | 50.40956 | 14.85652 | 20683 ft | 423 kts | 4° |
| 2026-05-06 20:48 | 50.43893 | 14.86166 | 21183 ft | 427 kts | 4° |
| 2026-05-06 20:48 | 50.46861 | 14.86688 | 21676 ft | 431 kts | 4° |
| 2026-05-06 20:48 | 50.49847 | 14.87214 | 22167 ft | 434 kts | 4° |
| 2026-05-06 20:49 | 50.52866 | 14.87745 | 22657 ft | 437 kts | 4° |
| 2026-05-06 20:49 | 50.55902 | 14.88280 | 23122 ft | 441 kts | 4° |
| 2026-05-06 20:49 | 50.58968 | 14.88820 | 23567 ft | 444 kts | 4° |
| 2026-05-06 20:49 | 50.62047 | 14.89363 | 23986 ft | 447 kts | 4° |
| 2026-05-06 20:50 | 50.65069 | 14.90432 | 24273 ft | 457 kts | 21° |
| 2026-05-06 20:50 | 50.67764 | 14.93049 | 24647 ft | 462 kts | 41° |
| 2026-05-06 20:50 | 50.69911 | 14.96812 | 25083 ft | 461 kts | 58° |
| 2026-05-06 20:50 | 50.71303 | 15.01338 | 25472 ft | 460 kts | 72° |
| 2026-05-06 20:51 | 50.72409 | 15.06094 | 25825 ft | 463 kts | 73° |
| 2026-05-06 20:51 | 50.73489 | 15.10897 | 26151 ft | 466 kts | 73° |
| 2026-05-06 20:51 | 50.74589 | 15.15740 | 26506 ft | 468 kts | 72° |
| 2026-05-06 20:51 | 50.75708 | 15.20566 | 26966 ft | 468 kts | 72° |
| 2026-05-06 20:52 | 50.76845 | 15.25383 | 27324 ft | 470 kts | 72° |
| 2026-05-06 20:52 | 50.77997 | 15.30239 | 27652 ft | 473 kts | 72° |
| 2026-05-06 20:52 | 50.79154 | 15.35123 | 27972 ft | 476 kts | 72° |
| 2026-05-06 20:52 | 50.80329 | 15.40023 | 28334 ft | 479 kts | 71° |
| 2026-05-06 20:53 | 50.81565 | 15.44916 | 28667 ft | 481 kts | 70° |
| 2026-05-06 20:53 | 50.82838 | 15.49824 | 28979 ft | 483 kts | 70° |
| 2026-05-06 20:53 | 50.84104 | 15.54676 | 29307 ft | 485 kts | 70° |
| 2026-05-06 20:53 | 50.85391 | 15.59632 | 29566 ft | 487 kts | 70° |
| 2026-05-06 20:54 | 50.86675 | 15.64609 | 29867 ft | 489 kts | 70° |
| 2026-05-06 20:54 | 50.87949 | 15.69583 | 30086 ft | 491 kts | 70° |
| 2026-05-06 20:54 | 50.89210 | 15.74581 | 30402 ft | 487 kts | 70° |
| 2026-05-06 20:54 | 50.90442 | 15.79612 | 30569 ft | 490 kts | 72° |
| 2026-05-06 20:55 | 50.91617 | 15.84698 | 30766 ft | 493 kts | 70° |
| 2026-05-06 20:55 | 50.92984 | 15.89678 | 31137 ft | 492 kts | 68° |
| 2026-05-06 20:55 | 50.94381 | 15.94627 | 31533 ft | 489 kts | 69° |
| 2026-05-06 20:55 | 50.95668 | 15.99614 | 31858 ft | 489 kts | 71° |
| 2026-05-06 20:56 | 50.96899 | 16.04645 | 32081 ft | 490 kts | 72° |
| 2026-05-06 20:56 | 50.98118 | 16.09703 | 32340 ft | 491 kts | 72° |
| 2026-05-06 20:56 | 50.99343 | 16.14765 | 32643 ft | 490 kts | 71° |
| 2026-05-06 20:56 | 51.00560 | 16.19749 | 32971 ft | 490 kts | 71° |
| 2026-05-06 20:57 | 51.01803 | 16.24796 | 33208 ft | 490 kts | 71° |
| 2026-05-06 20:57 | 51.03048 | 16.29834 | 33438 ft | 490 kts | 71° |
| 2026-05-06 20:57 | 51.04294 | 16.34865 | 33787 ft | 489 kts | 71° |
| 2026-05-06 20:57 | 51.05540 | 16.39907 | 34059 ft | 488 kts | 71° |
| 2026-05-06 20:58 | 51.06778 | 16.44929 | 34270 ft | 488 kts | 71° |
| 2026-05-06 20:58 | 51.08016 | 16.49967 | 34471 ft | 489 kts | 71° |
| 2026-05-06 20:58 | 51.09250 | 16.55000 | 34697 ft | 488 kts | 71° |
| 2026-05-06 20:58 | 51.10483 | 16.60045 | 34821 ft | 491 kts | 71° |
| 2026-05-06 20:59 | 51.11721 | 16.65121 | 34808 ft | 493 kts | 71° |
| 2026-05-06 20:59 | 51.14195 | 16.75293 | 34784 ft | 490 kts | 71° |
| 2026-05-06 21:00 | 51.16636 | 16.85368 | 34769 ft | 486 kts | 71° |
| 2026-05-06 21:00 | 51.19056 | 16.95417 | 34797 ft | 486 kts | 72° |
| 2026-05-06 21:01 | 51.21450 | 17.05395 | 34404 ft | 483 kts | 69° |
| 2026-05-06 21:01 | 51.22689 | 17.10360 | 34870 ft | 484 kts | 75° |
| 2026-05-06 21:01 | 51.23674 | 17.15514 | 34823 ft | 488 kts | 74° |
| 2026-05-06 21:02 | 51.26188 | 17.25708 | 34374 ft | 494 kts | 69° |
| 2026-05-06 21:02 | 51.27431 | 17.30757 | 34962 ft | 487 kts | 71° |
| 2026-05-06 21:02 | 51.28691 | 17.35805 | 34849 ft | 489 kts | 71° |
| 2026-05-06 21:03 | 51.31095 | 17.45989 | 34781 ft | 489 kts | 72° |
| 2026-05-06 21:03 | 51.33453 | 17.56191 | 34802 ft | 489 kts | 72° |
| 2026-05-06 21:04 | 51.35821 | 17.66415 | 34808 ft | 490 kts | 72° |
| 2026-05-06 21:04 | 51.38176 | 17.76578 | 34805 ft | 490 kts | 72° |
| 2026-05-06 21:05 | 51.40543 | 17.86828 | 34821 ft | 491 kts | 72° |
| 2026-05-06 21:05 | 51.42898 | 17.97079 | 34810 ft | 492 kts | 72° |
| 2026-05-06 21:06 | 51.45240 | 18.07372 | 34898 ft | 485 kts | 72° |
| 2026-05-06 21:06 | 51.46400 | 18.12487 | 34790 ft | 491 kts | 72° |
| 2026-05-06 21:06 | 51.47545 | 18.17660 | 34801 ft | 494 kts | 72° |
| 2026-05-06 21:06 | 51.48733 | 18.22865 | 34651 ft | 501 kts | 71° |
| 2026-05-06 21:07 | 51.49936 | 18.28111 | 34073 ft | 511 kts | 71° |
| 2026-05-06 21:07 | 51.51156 | 18.33454 | 33396 ft | 509 kts | 72° |
| 2026-05-06 21:07 | 51.52365 | 18.38790 | 32852 ft | 506 kts | 72° |
| 2026-05-06 21:07 | 51.53553 | 18.44071 | 32390 ft | 500 kts | 72° |
| 2026-05-06 21:08 | 51.54725 | 18.49303 | 31935 ft | 495 kts | 72° |
| 2026-05-06 21:08 | 51.55875 | 18.54465 | 31458 ft | 484 kts | 73° |
| 2026-05-06 21:08 | 51.56768 | 18.59605 | 31022 ft | 470 kts | 83° |
| 2026-05-06 21:08 | 51.57161 | 18.64733 | 30672 ft | 456 kts | 93° |
| 2026-05-06 21:09 | 51.57219 | 18.69796 | 30292 ft | 451 kts | 94° |
| 2026-05-06 21:09 | 51.57247 | 18.74815 | 29874 ft | 447 kts | 95° |
| 2026-05-06 21:09 | 51.57276 | 18.79797 | 29394 ft | 444 kts | 94° |
| 2026-05-06 21:09 | 51.57313 | 18.84737 | 28950 ft | 440 kts | 94° |
| 2026-05-06 21:10 | 51.57358 | 18.89634 | 28509 ft | 436 kts | 94° |
| 2026-05-06 21:10 | 51.57409 | 18.94487 | 28085 ft | 432 kts | 94° |
| 2026-05-06 21:10 | 51.57461 | 18.99242 | 27646 ft | 429 kts | 94° |
| 2026-05-06 21:10 | 51.57513 | 19.04015 | 27233 ft | 425 kts | 94° |
| 2026-05-06 21:11 | 51.57563 | 19.08752 | 26810 ft | 422 kts | 94° |
| 2026-05-06 21:11 | 51.57610 | 19.13460 | 26385 ft | 420 kts | 94° |
| 2026-05-06 21:11 | 51.57655 | 19.18126 | 25971 ft | 417 kts | 94° |
| 2026-05-06 21:11 | 51.57698 | 19.22776 | 25558 ft | 414 kts | 94° |
| 2026-05-06 21:12 | 51.57739 | 19.27392 | 25151 ft | 412 kts | 94° |
| 2026-05-06 21:12 | 51.57778 | 19.31991 | 24742 ft | 410 kts | 94° |
| 2026-05-06 21:12 | 51.57814 | 19.36573 | 24331 ft | 409 kts | 94° |
| 2026-05-06 21:12 | 51.57849 | 19.41131 | 23908 ft | 407 kts | 94° |
| 2026-05-06 21:13 | 51.57883 | 19.45678 | 23497 ft | 406 kts | 94° |
| 2026-05-06 21:13 | 51.57915 | 19.50216 | 23017 ft | 406 kts | 94° |
| 2026-05-06 21:13 | 51.57946 | 19.54737 | 22566 ft | 403 kts | 94° |
| 2026-05-06 21:13 | 51.57975 | 19.59239 | 22144 ft | 400 kts | 94° |
| 2026-05-06 21:14 | 51.58000 | 19.63691 | 21721 ft | 398 kts | 94° |
| 2026-05-06 21:14 | 51.58023 | 19.68116 | 21343 ft | 393 kts | 94° |
| 2026-05-06 21:14 | 51.58044 | 19.72500 | 20939 ft | 391 kts | 94° |
| 2026-05-06 21:14 | 51.58064 | 19.76854 | 20544 ft | 389 kts | 94° |
| 2026-05-06 21:15 | 51.58083 | 19.81182 | 20135 ft | 387 kts | 94° |
| 2026-05-06 21:15 | 51.58102 | 19.85493 | 19733 ft | 385 kts | 94° |
| 2026-05-06 21:15 | 51.58119 | 19.89785 | 19358 ft | 383 kts | 94° |
| 2026-05-06 21:15 | 51.58133 | 19.94068 | 18971 ft | 381 kts | 94° |
| 2026-05-06 21:16 | 51.58117 | 19.98307 | 18642 ft | 377 kts | 96° |
| 2026-05-06 21:16 | 51.57998 | 20.02500 | 18364 ft | 374 kts | 98° |
| 2026-05-06 21:16 | 51.57843 | 20.06682 | 18088 ft | 376 kts | 98° |
| 2026-05-06 21:16 | 51.57685 | 20.10898 | 17774 ft | 379 kts | 98° |
| 2026-05-06 21:17 | 51.57539 | 20.15085 | 17463 ft | 379 kts | 97° |
| 2026-05-06 21:17 | 51.57401 | 20.19285 | 17151 ft | 376 kts | 97° |
| 2026-05-06 21:17 | 51.57265 | 20.23468 | 16864 ft | 373 kts | 97° |
| 2026-05-06 21:17 | 51.57127 | 20.27630 | 16560 ft | 371 kts | 97° |
| 2026-05-06 21:18 | 51.56990 | 20.31759 | 16236 ft | 369 kts | 97° |
| 2026-05-06 21:18 | 51.56850 | 20.35877 | 15914 ft | 368 kts | 97° |
| 2026-05-06 21:18 | 51.56709 | 20.39979 | 15594 ft | 367 kts | 97° |
| 2026-05-06 21:18 | 51.56657 | 20.44074 | 15260 ft | 369 kts | 87° |
| 2026-05-06 21:19 | 51.57363 | 20.48053 | 14964 ft | 372 kts | 70° |
| 2026-05-06 21:19 | 51.58370 | 20.51881 | 14641 ft | 371 kts | 69° |
| 2026-05-06 21:19 | 51.59396 | 20.55696 | 14312 ft | 371 kts | 69° |
| 2026-05-06 21:19 | 51.60413 | 20.59500 | 14001 ft | 370 kts | 69° |
| 2026-05-06 21:20 | 51.61416 | 20.63300 | 13674 ft | 369 kts | 69° |
| 2026-05-06 21:20 | 51.62074 | 20.65816 | 13445 ft | 367 kts | 69° |
| 2026-05-06 21:20 | 51.63383 | 20.70856 | 12971 ft | 362 kts | 69° |
| 2026-05-06 21:20 | 51.64342 | 20.74568 | 12623 ft | 357 kts | 69° |
| 2026-05-06 21:21 | 51.65287 | 20.78233 | 12322 ft | 352 kts | 69° |
| 2026-05-06 21:21 | 51.66208 | 20.81818 | 12018 ft | 349 kts | 69° |
| 2026-05-06 21:21 | 51.67131 | 20.85419 | 11720 ft | 346 kts | 69° |
| 2026-05-06 21:21 | 51.68196 | 20.88882 | 11392 ft | 346 kts | 54° |
| 2026-05-06 21:22 | 51.69960 | 20.91490 | 11112 ft | 343 kts | 31° |
| 2026-05-06 21:22 | 51.72129 | 20.92993 | 10836 ft | 337 kts | 16° |
| 2026-05-06 21:22 | 51.72883 | 20.93382 | 10743 ft | 336 kts | 15° |